Time;durP1;ratioP1;P1;durP2;ratioP2;P2;SDS_P1;SDS_P2;PMS_P1;PMS_P2;Temp;Humidity;BMP_temperature;BMP_pressure;BME280_temperature;BME280_humidity;BME280_pressure;Samples;Min_cycle;Max_cycle;Signal;HPM_P1;HPM_P2
2022/03/21 00:02:04;;;;;;;0.30;0.30;;;5.80;70.90;;;;;;5054734;28;20197;-67
2022/03/21 00:04:29;;;;;;;1.13;1.13;;;5.80;70.90;;;;;;5055109;28;20168;-67
2022/03/21 00:06:56;;;;;;;0.50;0.50;;;5.80;71.20;;;;;;5054658;28;20796;-67
2022/03/21 00:09:21;;;;;;;0.60;0.60;;;5.80;70.90;;;;;;5054605;28;20181;-67
2022/03/21 00:11:50;;;;;;;0.30;0.30;;;5.70;71.70;;;;;;5054575;28;20174;-67
2022/03/21 00:14:15;;;;;;;0.32;0.32;;;5.60;72.30;;;;;;5054734;28;20174;-67
2022/03/21 00:16:41;;;;;;;0.30;0.30;;;5.60;73.40;;;;;;5054639;28;20194;-67
2022/03/21 00:19:07;;;;;;;0.30;0.30;;;5.50;74.00;;;;;;5054643;28;20438;-67
2022/03/21 00:21:34;;;;;;;0.30;0.30;;;5.50;74.20;;;;;;5054330;28;20432;-67
2022/03/21 00:24:01;;;;;;;0.40;0.40;;;5.50;74.50;;;;;;5054584;28;20170;-67
2022/03/21 00:26:26;;;;;;;0.35;0.35;;;5.40;74.70;;;;;;5054356;28;20272;-67
2022/03/21 00:28:52;;;;;;;0.63;0.63;;;5.50;75.10;;;;;;5054286;28;20565;-67
2022/03/21 00:31:18;;;;;;;0.97;0.97;;;5.60;75.10;;;;;;5054332;28;20194;-67
2022/03/21 00:33:43;;;;;;;0.30;0.30;;;5.60;75.00;;;;;;5054521;28;20166;-67
2022/03/21 00:36:09;;;;;;;0.30;0.30;;;5.60;74.70;;;;;;5053865;28;20200;-67
2022/03/21 00:38:41;;;;;;;0.30;0.30;;;5.50;74.80;;;;;;5054449;28;20223;-67
2022/03/21 00:41:07;;;;;;;0.60;0.60;;;5.50;74.60;;;;;;5054228;28;20173;-67
2022/03/21 00:43:33;;;;;;;0.30;0.30;;;5.50;74.80;;;;;;5054237;28;20178;-67
2022/03/21 00:46:00;;;;;;;0.30;0.30;;;5.50;74.60;;;;;;5054309;28;20200;-67
2022/03/21 00:48:27;;;;;;;0.30;0.30;;;5.60;74.50;;;;;;5054101;28;20178;-67
2022/03/21 00:50:54;;;;;;;1.80;1.70;;;5.60;74.30;;;;;;5053685;28;20190;-67
2022/03/21 00:53:20;;;;;;;0.30;0.30;;;5.70;74.60;;;;;;5054423;28;20172;-67
2022/03/21 00:55:48;;;;;;;0.40;0.40;;;5.50;74.30;;;;;;5053810;28;20664;-67
2022/03/21 00:58:14;;;;;;;1.30;0.88;;;5.50;74.80;;;;;;5054016;28;20257;-67
2022/03/21 01:00:40;;;;;;;0.30;0.30;;;5.50;75.60;;;;;;5053513;28;20192;-67
2022/03/21 01:03:06;;;;;;;1.37;1.37;;;5.40;76.30;;;;;;5053916;28;20180;-67
2022/03/21 01:05:32;;;;;;;0.30;0.30;;;5.40;77.80;;;;;;5053878;28;20810;-67
2022/03/21 01:07:58;;;;;;;0.30;0.30;;;5.50;78.00;;;;;;5054130;28;20902;-67
2022/03/21 01:10:26;;;;;;;0.30;0.30;;;5.40;77.70;;;;;;5053474;28;20550;-67
2022/03/21 01:12:52;;;;;;;0.63;0.63;;;5.40;77.60;;;;;;5053826;28;20181;-67
2022/03/21 01:15:20;;;;;;;0.30;0.30;;;5.40;78.30;;;;;;5052444;28;20176;-67
2022/03/21 01:17:47;;;;;;;0.68;0.68;;;5.30;78.50;;;;;;5053560;28;20187;-67
2022/03/21 01:20:15;;;;;;;0.40;0.40;;;5.30;78.80;;;;;;5053320;28;20694;-67
2022/03/21 01:22:43;;;;;;;2.05;1.95;;;5.30;79.80;;;;;;5053512;28;20253;-67
2022/03/21 01:25:10;;;;;;;0.30;0.30;;;5.20;79.80;;;;;;5053501;28;20213;-67
2022/03/21 01:27:38;;;;;;;0.30;0.30;;;5.10;79.80;;;;;;5053418;28;20209;-67
2022/03/21 01:30:05;;;;;;;0.32;0.32;;;5.10;80.40;;;;;;5053824;28;20637;-67
2022/03/21 01:32:32;;;;;;;0.40;0.30;;;5.20;80.60;;;;;;5053377;28;20181;-67
2022/03/21 01:34:58;;;;;;;0.30;0.30;;;5.20;80.80;;;;;;5053373;28;20204;-67
2022/03/21 01:37:23;;;;;;;0.30;0.30;;;5.30;81.20;;;;;;5053404;28;20240;-67
2022/03/21 01:39:49;;;;;;;0.30;0.30;;;5.20;80.80;;;;;;5053482;28;20179;-67
2022/03/21 01:42:14;;;;;;;0.30;0.30;;;5.20;80.80;;;;;;5053213;28;20173;-67
2022/03/21 01:44:41;;;;;;;0.40;0.40;;;5.30;80.50;;;;;;5053255;28;20201;-67
2022/03/21 01:47:07;;;;;;;0.40;0.40;;;5.20;80.00;;;;;;5052219;28;20191;-67
2022/03/21 01:49:32;;;;;;;0.33;0.33;;;5.20;80.90;;;;;;5052998;28;20204;-67
2022/03/21 01:51:58;;;;;;;0.30;0.30;;;5.10;82.50;;;;;;5053074;28;20169;-67
2022/03/21 01:57:10;;;;;;;0.30;0.30;;;5.00;83.90;;;;;;5053394;28;20221;-67
2022/03/21 01:59:36;;;;;;;0.40;0.40;;;5.00;83.80;;;;;;5053121;28;20175;-67
2022/03/21 02:02:03;;;;;;;0.30;0.30;;;5.00;84.70;;;;;;5052809;28;20209;-67
2022/03/21 02:04:28;;;;;;;0.30;0.30;;;4.90;84.30;;;;;;5053112;28;20580;-67
2022/03/21 02:06:54;;;;;;;0.40;0.40;;;4.90;84.90;;;;;;5052906;28;20275;-67
2022/03/21 02:09:20;;;;;;;0.30;0.30;;;5.00;84.50;;;;;;5051541;28;20206;-67
2022/03/21 02:11:46;;;;;;;0.30;0.30;;;4.90;84.00;;;;;;5052730;28;20197;-67
2022/03/21 02:14:12;;;;;;;0.40;0.40;;;5.00;84.00;;;;;;5053061;28;20190;-67
2022/03/21 02:16:39;;;;;;;0.30;0.30;;;5.00;84.00;;;;;;5052809;28;20216;-67
2022/03/21 02:19:20;;;;;;;0.60;0.60;;;5.00;84.00;;;;;;5052825;28;20176;-67
2022/03/21 02:22:02;;;;;;;0.30;0.30;;;5.00;84.10;;;;;;5052783;28;20162;-67
2022/03/21 02:24:47;;;;;;;0.30;0.30;;;4.90;84.90;;;;;;5053015;28;20519;-67
2022/03/21 02:27:13;;;;;;;0.30;0.30;;;5.00;85.50;;;;;;5052789;28;20183;-67
2022/03/21 02:29:40;;;;;;;0.30;0.30;;;5.00;85.40;;;;;;5052880;28;20205;-67
2022/03/21 02:32:07;;;;;;;0.57;0.57;;;5.00;85.60;;;;;;5052668;28;20247;-67
2022/03/21 02:34:37;;;;;;;0.40;0.40;;;5.00;85.90;;;;;;5052842;28;20178;-67
2022/03/21 02:37:04;;;;;;;0.30;0.30;;;5.00;86.80;;;;;;5052547;28;20233;-67
2022/03/21 02:39:30;;;;;;;0.60;0.60;;;5.00;86.30;;;;;;5052868;28;20179;-67
2022/03/21 02:41:56;;;;;;;0.30;0.30;;;5.00;86.60;;;;;;5052523;28;20258;-67
2022/03/21 02:44:22;;;;;;;0.40;0.40;;;5.00;86.30;;;;;;5052663;28;20250;-67
2022/03/21 02:46:47;;;;;;;0.30;0.30;;;5.00;86.70;;;;;;5053037;28;20790;-67
2022/03/21 02:49:16;;;;;;;0.30;0.30;;;4.90;87.00;;;;;;5052628;28;20406;-67
2022/03/21 02:51:43;;;;;;;1.20;1.20;;;5.00;87.30;;;;;;5052306;28;20169;-67
2022/03/21 02:54:10;;;;;;;0.35;0.35;;;4.90;87.30;;;;;;5052520;28;20174;-67
2022/03/21 02:56:36;;;;;;;0.30;0.30;;;4.90;87.50;;;;;;5052432;28;20188;-67
2022/03/21 02:59:02;;;;;;;0.30;0.30;;;5.00;87.50;;;;;;5054978;28;20256;-67
2022/03/21 03:01:28;;;;;;;0.30;0.30;;;5.00;87.40;;;;;;5055732;28;20188;-67
2022/03/21 03:03:53;;;;;;;0.30;0.30;;;5.00;87.60;;;;;;5056144;28;20439;-67
2022/03/21 03:06:19;;;;;;;0.37;0.37;;;5.00;87.50;;;;;;5055881;28;20218;-67
2022/03/21 03:08:45;;;;;;;0.40;0.40;;;5.00;87.60;;;;;;5055939;28;20628;-67
2022/03/21 03:11:11;;;;;;;0.30;0.30;;;4.90;88.00;;;;;;5055671;28;20444;-67
2022/03/21 03:13:37;;;;;;;0.30;0.30;;;4.90;88.40;;;;;;5056236;28;20425;-67
2022/03/21 03:16:04;;;;;;;0.30;0.30;;;4.90;88.80;;;;;;5055897;28;20241;-67
2022/03/21 03:18:30;;;;;;;0.32;0.32;;;4.90;89.10;;;;;;5055755;28;20196;-67
2022/03/21 03:20:57;;;;;;;0.30;0.30;;;4.90;89.20;;;;;;5055536;28;20206;-67
2022/03/21 03:23:25;;;;;;;0.30;0.30;;;4.90;89.50;;;;;;5055733;28;20175;-67
2022/03/21 03:26:03;;;;;;;0.35;0.35;;;4.90;89.90;;;;;;5055628;28;20196;-67
2022/03/21 03:28:29;;;;;;;0.30;0.30;;;4.80;90.20;;;;;;5055596;28;20162;-67
2022/03/21 03:30:56;;;;;;;0.30;0.30;;;4.80;90.60;;;;;;5055349;28;20238;-67
2022/03/21 03:33:22;;;;;;;0.40;0.40;;;4.80;90.70;;;;;;5055589;28;20167;-67
2022/03/21 03:35:48;;;;;;;0.30;0.30;;;4.80;90.60;;;;;;5054105;28;20561;-67
2022/03/21 03:38:15;;;;;;;0.50;0.50;;;4.70;90.70;;;;;;5055375;28;20170;-67
2022/03/21 03:40:41;;;;;;;0.30;0.30;;;4.70;90.90;;;;;;5055140;28;20183;-67
2022/03/21 03:43:07;;;;;;;0.30;0.30;;;4.70;91.20;;;;;;5055405;28;20177;-67
2022/03/21 03:45:33;;;;;;;0.30;0.30;;;4.70;91.30;;;;;;5055245;28;20454;-67
2022/03/21 03:47:58;;;;;;;0.40;0.40;;;4.70;91.60;;;;;;5055096;28;20194;-67
2022/03/21 03:50:24;;;;;;;0.50;0.50;;;4.70;92.00;;;;;;5055126;28;20208;-67
2022/03/21 03:52:49;;;;;;;0.30;0.30;;;4.70;92.40;;;;;;5055121;28;20173;-67
2022/03/21 03:55:17;;;;;;;0.40;0.40;;;4.90;92.10;;;;;;5055047;28;20160;-67
2022/03/21 03:57:44;;;;;;;0.30;0.30;;;4.80;91.70;;;;;;5055206;28;20338;-67
2022/03/21 04:00:11;;;;;;;0.30;0.30;;;4.70;91.70;;;;;;5054755;28;20681;-67
2022/03/21 04:05:21;;;;;;;0.30;0.30;;;4.50;92.70;;;;;;5055013;28;20246;-67
2022/03/21 04:07:48;;;;;;;0.30;0.30;;;4.60;92.70;;;;;;5055183;28;20181;-67
2022/03/21 04:10:14;;;;;;;0.40;0.40;;;4.60;92.40;;;;;;5053653;28;20238;-67
2022/03/21 04:12:39;;;;;;;0.30;0.30;;;4.70;92.20;;;;;;5054804;28;20208;-67
2022/03/21 04:15:07;;;;;;;0.50;0.50;;;4.80;92.10;;;;;;5054795;28;20173;-67
2022/03/21 04:17:35;;;;;;;0.30;0.30;;;4.70;92.30;;;;;;5054695;28;20239;-67
2022/03/21 04:20:02;;;;;;;0.30;0.30;;;4.80;92.30;;;;;;5054413;28;20175;-67
2022/03/21 04:22:28;;;;;;;0.30;0.30;;;4.80;92.10;;;;;;5054700;28;20174;-67
2022/03/21 04:24:54;;;;;;;0.30;0.30;;;4.80;92.20;;;;;;5054581;28;20644;-67
2022/03/21 04:27:19;;;;;;;0.30;0.30;;;4.80;92.50;;;;;;5054323;28;20264;-67
2022/03/21 04:29:45;;;;;;;2.10;2.00;;;4.70;92.70;;;;;;5054393;28;20236;-67
2022/03/21 04:32:11;;;;;;;0.40;0.40;;;4.60;93.20;;;;;;5052896;28;20698;-67
2022/03/21 04:34:36;;;;;;;0.30;0.30;;;4.60;93.60;;;;;;5054282;28;20178;-67
2022/03/21 04:37:02;;;;;;;0.47;0.47;;;4.80;93.80;;;;;;5054147;28;20691;-67
2022/03/21 04:39:28;;;;;;;0.40;0.40;;;5.00;93.50;;;;;;5054251;28;20526;-67
2022/03/21 04:41:54;;;;;;;0.30;0.30;;;5.10;93.10;;;;;;5054147;28;20584;-67
2022/03/21 04:44:19;;;;;;;0.40;0.40;;;5.20;92.90;;;;;;5054177;28;20234;-67
2022/03/21 04:46:45;;;;;;;0.40;0.40;;;5.20;92.80;;;;;;5053939;28;20186;-67
2022/03/21 04:49:11;;;;;;;0.37;0.37;;;5.30;92.90;;;;;;5053978;28;20170;-67
2022/03/21 04:51:36;;;;;;;0.50;0.50;;;5.30;92.70;;;;;;5053767;28;20733;-67
2022/03/21 04:54:02;;;;;;;0.30;0.30;;;5.30;92.30;;;;;;5054054;28;20169;-67
2022/03/21 04:56:28;;;;;;;0.30;0.30;;;5.20;92.50;;;;;;5053910;28;20526;-67
2022/03/21 04:58:53;;;;;;;0.30;0.30;;;5.30;92.80;;;;;;5053819;28;20312;-67
2022/03/21 05:01:19;;;;;;;0.30;0.30;;;5.30;92.80;;;;;;5053383;28;20239;-67
2022/03/21 05:03:45;;;;;;;0.30;0.30;;;5.40;92.90;;;;;;5053718;28;20174;-67
2022/03/21 05:06:12;;;;;;;0.30;0.30;;;5.50;92.80;;;;;;5053634;28;20191;-67
2022/03/21 05:08:37;;;;;;;0.30;0.30;;;5.50;92.70;;;;;;5053658;28;20190;-67
2022/03/21 05:11:03;;;;;;;0.40;0.40;;;5.50;92.70;;;;;;5053365;28;20208;-67
2022/03/21 05:13:29;;;;;;;0.30;0.30;;;5.60;92.60;;;;;;5053706;28;20257;-67
2022/03/21 05:15:55;;;;;;;0.40;0.40;;;5.60;92.50;;;;;;5053442;28;20193;-67
2022/03/21 05:18:22;;;;;;;0.40;0.40;;;5.70;92.50;;;;;;5053998;28;20181;-67
2022/03/21 05:20:48;;;;;;;0.50;0.50;;;5.70;92.50;;;;;;5053178;28;20476;-67
2022/03/21 05:31:27;;;;;;;1.23;1.23;;;5.40;92.80;;;;;;5053250;28;20255;-67
2022/03/21 05:36:37;;;;;;;0.30;0.30;;;5.20;93.50;;;;;;5053230;28;20418;-67
2022/03/21 05:39:04;;;;;;;0.30;0.30;;;5.30;93.70;;;;;;5053396;28;20624;-67
2022/03/21 05:41:30;;;;;;;0.30;0.30;;;5.40;93.60;;;;;;5052989;28;20177;-67
2022/03/21 05:43:55;;;;;;;0.30;0.30;;;5.40;93.60;;;;;;5053302;28;20169;-67
2022/03/21 05:46:22;;;;;;;0.30;0.30;;;5.40;93.30;;;;;;5053027;28;20687;-67
2022/03/21 05:48:50;;;;;;;0.30;0.30;;;5.40;93.00;;;;;;5053013;28;20256;-67
2022/03/21 05:51:18;;;;;;;0.30;0.30;;;5.40;93.10;;;;;;5052791;28;20206;-67
2022/03/21 05:53:45;;;;;;;0.30;0.30;;;5.50;93.00;;;;;;5053115;28;20253;-67
2022/03/21 05:56:12;;;;;;;0.30;0.30;;;5.40;93.00;;;;;;5052948;28;20196;-67
2022/03/21 05:58:38;;;;;;;0.30;0.30;;;5.40;93.30;;;;;;5052951;28;20259;-67
2022/03/21 06:01:04;;;;;;;0.30;0.30;;;5.40;93.40;;;;;;5052726;28;20320;-67
2022/03/21 06:03:30;;;;;;;0.30;0.30;;;5.50;93.50;;;;;;5053072;28;20242;-67
2022/03/21 06:05:57;;;;;;;0.30;0.30;;;5.60;93.30;;;;;;5051616;28;20335;-67
2022/03/21 06:08:23;;;;;;;0.40;0.40;;;5.80;93.10;;;;;;5052919;28;20180;-67
2022/03/21 06:10:49;;;;;;;0.60;0.60;;;5.80;92.90;;;;;;5052587;28;20260;-67
2022/03/21 06:13:16;;;;;;;0.30;0.30;;;5.90;92.80;;;;;;5052907;28;20190;-67
2022/03/21 06:15:41;;;;;;;0.40;0.40;;;6.00;92.70;;;;;;5052716;28;20186;-67
2022/03/21 06:18:11;;;;;;;1.20;1.20;;;6.00;92.70;;;;;;5052765;28;20179;-67
2022/03/21 06:20:39;;;;;;;0.40;0.40;;;6.10;92.70;;;;;;5052815;28;20415;-67
2022/03/21 06:23:05;;;;;;;0.40;0.40;;;6.20;92.60;;;;;;5052808;28;20531;-67
2022/03/21 06:25:31;;;;;;;0.40;0.40;;;6.30;92.00;;;;;;5052893;28;20181;-67
2022/03/21 06:27:57;;;;;;;0.40;0.40;;;6.30;91.80;;;;;;5052690;28;20906;-67
2022/03/21 06:30:23;;;;;;;0.30;0.30;;;6.20;91.50;;;;;;5052424;28;20527;-66
2022/03/21 06:32:48;;;;;;;0.33;0.33;;;6.10;91.70;;;;;;5053246;28;20400;-66
2022/03/21 06:35:14;;;;;;;0.40;0.40;;;6.30;92.10;;;;;;5056681;28;20893;-66
2022/03/21 06:37:40;;;;;;;0.30;0.30;;;6.60;91.90;;;;;;5056675;28;20409;-66
2022/03/21 06:40:08;;;;;;;0.40;0.40;;;6.80;91.70;;;;;;5055076;28;20602;-66
2022/03/21 06:42:33;;;;;;;0.30;0.30;;;6.90;91.20;;;;;;5056692;28;20232;-66
2022/03/21 06:44:59;;;;;;;0.30;0.30;;;7.10;90.70;;;;;;5056505;28;20182;-66
2022/03/21 06:47:25;;;;;;;0.30;0.30;;;7.20;90.30;;;;;;5056250;28;20256;-66
2022/03/21 06:49:50;;;;;;;1.13;1.13;;;7.20;90.30;;;;;;5056213;28;20204;-66
2022/03/21 06:52:19;;;;;;;0.40;0.40;;;7.50;90.20;;;;;;5054912;28;20421;-66
2022/03/21 06:54:49;;;;;;;0.30;0.30;;;7.80;90.20;;;;;;5056111;28;20609;-66
2022/03/21 06:57:19;;;;;;;0.40;0.40;;;8.20;86.70;;;;;;5056064;28;20190;-66
2022/03/21 06:59:48;;;;;;;0.30;0.30;;;8.70;83.40;;;;;;5056158;28;20170;-66
2022/03/21 07:02:16;;;;;;;0.60;0.60;;;9.40;81.60;;;;;;5054223;28;20201;-67
2022/03/21 07:04:41;;;;;;;2.05;1.95;;;10.20;77.40;;;;;;5055755;28;20168;-68
2022/03/21 07:07:07;;;;;;;0.30;0.30;;;11.00;74.10;;;;;;5055937;28;20199;-67
2022/03/21 07:09:32;;;;;;;2.20;2.00;;;11.60;70.20;;;;;;5056235;28;20271;-67
2022/03/21 07:11:58;;;;;;;0.30;0.30;;;12.30;68.70;;;;;;5055918;28;20559;-67
2022/03/21 07:14:24;;;;;;;0.30;0.30;;;12.80;64.80;;;;;;5056109;28;20589;-67
2022/03/21 07:16:50;;;;;;;2.30;2.20;;;13.10;62.70;;;;;;5055770;28;20190;-67
2022/03/21 07:19:15;;;;;;;0.80;0.60;;;13.60;61.10;;;;;;5056050;28;20197;-67
2022/03/21 07:21:41;;;;;;;0.30;0.30;;;14.30;59.30;;;;;;5055831;28;20423;-68
2022/03/21 07:24:07;;;;;;;1.23;1.13;;;14.70;57.70;;;;;;5055912;28;20538;-66
2022/03/21 07:26:34;;;;;;;0.40;0.40;;;15.40;56.50;;;;;;5055694;28;20189;-68
2022/03/21 07:29:01;;;;;;;0.67;0.67;;;16.20;54.20;;;;;;5052062;28;20597;-66
2022/03/21 07:31:26;;;;;;;0.30;0.30;;;16.80;52.20;;;;;;5055630;28;20873;-66
2022/03/21 07:33:52;;;;;;;0.30;0.30;;;17.20;51.30;;;;;;5054826;28;20401;-66
2022/03/21 07:36:18;;;;;;;1.00;0.90;;;17.50;50.10;;;;;;5054383;28;20207;-66
2022/03/21 07:38:43;;;;;;;0.30;0.30;;;17.80;49.70;;;;;;5055599;28;20177;-66
2022/03/21 07:41:09;;;;;;;0.30;0.30;;;18.00;48.10;;;;;;5055335;28;20173;-66
2022/03/21 07:43:36;;;;;;;0.40;0.40;;;18.10;48.10;;;;;;5055797;28;20178;-66
2022/03/21 07:48:46;;;;;;;0.87;0.73;;;18.10;48.20;;;;;;5055970;28;20416;-66
2022/03/21 07:51:12;;;;;;;0.30;0.30;;;18.30;47.50;;;;;;5055146;28;20460;-66
2022/03/21 07:53:38;;;;;;;0.70;0.70;;;18.60;46.70;;;;;;5055254;28;20407;-66
2022/03/21 07:56:04;;;;;;;0.50;0.50;;;19.10;47.00;;;;;;5055170;28;20431;-66
2022/03/21 07:58:33;;;;;;;0.40;0.40;;;19.80;44.50;;;;;;5055266;28;20411;-66
2022/03/21 08:01:00;;;;;;;0.50;0.50;;;20.30;43.20;;;;;;5055123;28;20755;-66
2022/03/21 08:03:26;;;;;;;0.50;0.50;;;20.60;42.50;;;;;;5055692;28;20466;-66
2022/03/21 08:05:52;;;;;;;0.30;0.30;;;20.70;42.20;;;;;;5055486;28;20430;-66
2022/03/21 08:08:20;;;;;;;0.50;0.50;;;20.60;42.50;;;;;;5055633;28;20413;-67
2022/03/21 08:10:46;;;;;;;0.53;0.50;;;20.40;42.90;;;;;;5055126;28;20284;-67
2022/03/21 08:13:16;;;;;;;0.30;0.30;;;19.90;42.40;;;;;;5055080;28;20406;-67
2022/03/21 08:15:43;;;;;;;0.40;0.40;;;19.60;43.30;;;;;;5055141;28;20803;-66
2022/03/21 08:18:10;;;;;;;0.40;0.40;;;19.60;42.60;;;;;;5054770;28;20397;-66
2022/03/21 08:20:38;;;;;;;0.40;0.40;;;19.40;42.90;;;;;;5054853;28;20414;-66
2022/03/21 08:23:07;;;;;;;0.80;0.80;;;19.40;42.40;;;;;;5055307;28;20408;-66
2022/03/21 08:25:34;;;;;;;0.40;0.40;;;19.30;43.90;;;;;;5054547;28;20438;-65
2022/03/21 08:28:00;;;;;;;0.40;0.40;;;19.40;43.60;;;;;;5055113;28;20759;-66
2022/03/21 08:30:27;;;;;;;0.77;0.77;;;19.80;42.60;;;;;;5054512;28;20447;-66
2022/03/21 08:32:53;;;;;;;0.40;0.40;;;20.30;42.70;;;;;;5055035;28;20162;-66
2022/03/21 08:35:20;;;;;;;1.23;1.13;;;20.90;41.80;;;;;;5054957;28;20397;-66
2022/03/21 08:37:46;;;;;;;0.50;0.50;;;20.90;41.00;;;;;;5054424;28;20401;-66
2022/03/21 08:40:13;;;;;;;0.73;0.73;;;21.10;40.40;;;;;;5054682;28;21235;-66
2022/03/21 08:42:39;;;;;;;0.70;0.57;;;21.30;39.50;;;;;;5054624;28;20402;-66
2022/03/21 08:45:06;;;;;;;0.70;0.70;;;21.80;38.90;;;;;;5054623;28;20914;-66
2022/03/21 08:47:32;;;;;;;0.30;0.30;;;22.00;38.80;;;;;;5054677;28;20544;-66
2022/03/21 08:49:57;;;;;;;0.40;0.40;;;22.20;37.80;;;;;;5053999;28;20466;-66
2022/03/21 08:52:23;;;;;;;0.93;0.93;;;22.40;37.90;;;;;;5054366;28;20170;-66
2022/03/21 08:54:49;;;;;;;0.40;0.40;;;22.50;37.00;;;;;;5054362;28;20221;-66
2022/03/21 08:57:15;;;;;;;1.27;0.70;;;23.10;38.50;;;;;;5053555;28;20184;-66
2022/03/21 08:59:40;;;;;;;0.30;0.30;;;23.80;36.10;;;;;;5054322;28;20865;-68
2022/03/21 09:02:08;;;;;;;0.40;0.40;;;24.80;35.40;;;;;;5054357;28;20209;-66
2022/03/21 09:04:35;;;;;;;1.03;1.03;;;25.50;34.10;;;;;;5054404;28;20190;-66
2022/03/21 09:07:02;;;;;;;0.57;0.57;;;25.90;33.10;;;;;;5054188;28;20430;-66
2022/03/21 09:09:27;;;;;;;0.80;0.80;;;26.20;32.50;;;;;;5053961;28;20743;-66
2022/03/21 09:11:53;;;;;;;1.37;1.37;;;26.90;32.10;;;;;;5053990;28;20408;-66
2022/03/21 09:14:19;;;;;;;0.83;0.83;;;27.10;30.90;;;;;;5054224;28;20202;-66
2022/03/21 09:16:45;;;;;;;0.30;0.30;;;27.00;30.30;;;;;;5053945;28;20556;-66
2022/03/21 09:19:11;;;;;;;0.53;0.53;;;27.20;30.00;;;;;;5053751;28;20535;-66
2022/03/21 09:21:37;;;;;;;0.87;0.87;;;27.50;29.80;;;;;;5053605;28;20408;-66
2022/03/21 09:24:04;;;;;;;2.67;2.57;;;27.90;28.80;;;;;;5053977;28;20174;-67
2022/03/21 09:26:30;;;;;;;0.97;0.97;;;28.30;28.00;;;;;;5053860;28;20190;-67
2022/03/21 09:29:05;;;;;;;1.13;0.67;;;28.40;27.80;;;;;;5054063;28;20405;-66
2022/03/21 09:31:32;;;;;;;0.40;0.40;;;28.40;28.40;;;;;;5053503;28;20953;-68
2022/03/21 09:33:58;;;;;;;1.07;1.07;;;28.30;28.50;;;;;;5053710;28;20814;-67
2022/03/21 09:36:24;;;;;;;0.50;0.50;;;28.40;27.40;;;;;;5053262;28;20424;-67
2022/03/21 09:38:50;;;;;;;3.13;1.97;;;27.30;27.60;;;;;;5053592;28;20450;-67
2022/03/21 09:41:22;;;;;;;1.57;1.47;;;26.80;27.60;;;;;;5053537;28;20166;-68
2022/03/21 09:43:52;;;;;;;0.50;0.50;;;26.40;28.10;;;;;;5053491;28;20440;-68
2022/03/21 09:46:17;;;;;;;1.73;1.63;;;26.50;27.60;;;;;;5053363;28;20424;-67
2022/03/21 09:48:47;;;;;;;1.40;0.70;;;27.00;27.00;;;;;;5052067;28;20500;-67
2022/03/21 09:51:13;;;;;;;0.60;0.60;;;25.20;28.40;;;;;;5053080;28;20204;-67
2022/03/21 09:53:40;;;;;;;0.40;0.40;;;26.00;29.10;;;;;;5053257;28;20832;-67
2022/03/21 09:56:07;;;;;;;0.30;0.30;;;26.60;28.10;;;;;;5053196;28;20268;-67
2022/03/21 09:58:33;;;;;;;0.60;0.60;;;26.70;27.10;;;;;;5053300;28;20404;-67
2022/03/21 10:00:59;;;;;;;0.30;0.30;;;27.30;26.70;;;;;;5053038;28;20793;-67
2022/03/21 10:03:25;;;;;;;3.50;1.53;;;27.20;25.20;;;;;;5053214;28;20175;-67
2022/03/21 10:05:51;;;;;;;0.40;0.40;;;26.90;26.30;;;;;;5053164;28;20431;-67
2022/03/21 10:08:22;;;;;;;1.17;0.87;;;26.70;27.30;;;;;;5053219;28;20189;-66
2022/03/21 10:11:01;;;;;;;0.77;0.53;;;25.10;26.30;;;;;;5055643;28;20209;-66
2022/03/21 10:13:32;;;;;;;1.03;0.80;;;23.50;28.10;;;;;;5055504;28;20410;-66
2022/03/21 10:16:12;;;;;;;0.40;0.40;;;23.90;28.20;;;;;;5055118;28;20550;-66
2022/03/21 10:18:56;;;;;;;0.40;0.40;;;25.30;27.70;;;;;;5056262;28;20400;-66
2022/03/21 10:21:24;;;;;;;0.40;0.40;;;25.90;24.90;;;;;;5056925;28;20418;-66
2022/03/21 10:24:07;;;;;;;1.13;1.13;;;26.30;26.50;;;;;;5057102;28;20409;-66
2022/03/21 10:26:40;;;;;;;0.83;0.83;;;27.00;25.40;;;;;;5056949;28;20478;-66
2022/03/21 10:29:10;;;;;;;0.97;0.97;;;25.90;25.60;;;;;;5057042;28;20457;-66
2022/03/21 10:31:42;;;;;;;1.43;0.60;;;25.80;27.40;;;;;;5056643;28;20482;-66
2022/03/21 10:34:10;;;;;;;0.40;0.40;;;24.90;25.90;;;;;;5056756;28;20396;-66
2022/03/21 10:37:06;;;;;;;0.60;0.60;;;23.60;25.80;;;;;;5056703;28;20436;-66
2022/03/21 10:39:38;;;;;;;1.13;1.10;;;23.90;26.60;;;;;;5056967;28;20401;-66
2022/03/21 10:42:09;;;;;;;1.57;1.57;;;25.10;26.40;;;;;;5056563;28;20433;-66
2022/03/21 10:44:36;;;;;;;0.60;0.60;;;25.30;25.40;;;;;;5054544;28;20401;-67
2022/03/21 10:47:07;;;;;;;0.43;0.43;;;25.30;24.30;;;;;;5056473;28;20489;-66
2022/03/21 10:49:46;;;;;;;2.10;0.90;;;25.30;24.80;;;;;;5056231;28;20467;-67
2022/03/21 10:52:19;;;;;;;0.30;0.30;;;25.20;25.60;;;;;;5054801;28;20898;-67
2022/03/21 10:54:48;;;;;;;0.47;0.47;;;25.00;25.10;;;;;;5056558;28;20894;-67
2022/03/21 10:57:38;;;;;;;0.67;0.67;;;24.50;25.50;;;;;;5056486;28;20578;-67
2022/03/21 11:00:18;;;;;;;0.30;0.30;;;24.70;24.80;;;;;;5055753;28;20435;-67
2022/03/21 11:03:06;;;;;;;0.50;0.50;;;24.30;25.30;;;;;;5055045;28;20389;-67
2022/03/21 11:05:37;;;;;;;0.70;0.70;;;24.20;25.60;;;;;;5055162;28;20596;-66
2022/03/21 11:08:07;;;;;;;1.03;1.03;;;23.60;25.90;;;;;;5055234;28;20396;-67
2022/03/21 11:10:33;;;;;;;0.63;0.63;;;23.50;26.70;;;;;;5054575;28;20462;-67
2022/03/21 11:13:01;;;;;;;1.47;0.90;;;23.60;27.20;;;;;;5055021;28;20444;-67
2022/03/21 11:15:29;;;;;;;0.30;0.30;;;23.10;25.90;;;;;;5054762;28;20488;-66
2022/03/21 11:17:55;;;;;;;0.40;0.40;;;22.10;26.10;;;;;;5054615;28;20412;-66
2022/03/21 11:20:21;;;;;;;1.60;1.50;;;21.50;27.20;;;;;;5054477;28;20470;-66
2022/03/21 11:22:47;;;;;;;0.70;0.70;;;20.80;27.70;;;;;;5055171;28;20465;-66
2022/03/21 11:25:16;;;;;;;0.30;0.30;;;20.20;27.80;;;;;;5052527;28;20816;-66
2022/03/21 11:28:08;;;;;;;2.03;1.93;;;19.60;29.10;;;;;;5054560;28;20410;-67
2022/03/21 11:30:56;;;;;;;0.30;0.30;;;19.30;29.90;;;;;;5053678;28;20445;-66
2022/03/21 11:33:30;;;;;;;0.30;0.30;;;19.00;30.00;;;;;;5053583;28;20882;-67
2022/03/21 11:36:01;;;;;;;0.30;0.30;;;18.20;30.50;;;;;;5054543;28;20423;-66
2022/03/21 11:38:29;;;;;;;0.50;0.50;;;17.70;31.30;;;;;;5054581;28;20476;-66
2022/03/21 11:41:21;;;;;;;0.30;0.30;;;16.80;30.50;;;;;;5053083;28;20914;-66
2022/03/21 11:44:08;;;;;;;0.50;0.50;;;16.50;32.30;;;;;;5054680;28;20413;-66
2022/03/21 11:46:34;;;;;;;0.30;0.30;;;16.90;32.40;;;;;;5053738;28;20809;-66
2022/03/21 11:49:02;;;;;;;0.73;0.70;;;17.70;33.10;;;;;;5054234;28;20408;-67
2022/03/21 11:51:34;;;;;;;0.30;0.30;;;18.20;30.20;;;;;;5053963;28;20448;-66
2022/03/21 11:54:00;;;;;;;0.30;0.30;;;18.10;29.80;;;;;;5054434;28;20475;-66
2022/03/21 11:56:41;;;;;;;0.30;0.30;;;18.10;30.00;;;;;;5054182;28;20946;-66
2022/03/21 11:59:08;;;;;;;0.30;0.30;;;16.80;30.90;;;;;;5054714;28;20162;-66
2022/03/21 12:01:34;;;;;;;1.27;1.27;;;16.30;31.40;;;;;;5012704;28;1207689;-66
2022/03/21 12:04:24;;;;;;;0.70;0.70;;;16.50;31.70;;;;;;5055094;28;20181;-66
2022/03/21 12:06:51;;;;;;;0.40;0.40;;;16.70;32.00;;;;;;5055027;28;20968;-66
2022/03/21 12:09:17;;;;;;;1.13;1.07;;;17.30;31.20;;;;;;5055143;28;20405;-67
2022/03/21 12:11:46;;;;;;;0.30;0.30;;;17.60;31.00;;;;;;5054932;28;20463;-67
2022/03/21 12:14:41;;;;;;;0.33;0.33;;;17.80;29.60;;;;;;5055067;28;20439;-66
2022/03/21 12:17:10;;;;;;;0.47;0.47;;;18.00;29.30;;;;;;5054782;28;20432;-66
2022/03/21 12:19:45;;;;;;;0.60;0.60;;;18.40;29.40;;;;;;5054921;28;20409;-66
2022/03/21 12:22:36;;;;;;;0.30;0.30;;;18.70;28.70;;;;;;5054693;28;20400;-66
2022/03/21 12:25:31;;;;;;;0.30;0.30;;;18.20;28.20;;;;;;5054924;28;20489;-66
2022/03/21 12:28:21;;;;;;;0.30;0.30;;;18.10;28.90;;;;;;5054143;28;21105;-66
2022/03/21 12:30:49;;;;;;;0.60;0.60;;;17.60;29.10;;;;;;5052534;28;20498;-67
2022/03/21 12:33:16;;;;;;;0.30;0.30;;;17.80;29.30;;;;;;5054463;28;20458;-67
2022/03/21 12:35:47;;;;;;;0.47;0.47;;;18.10;28.70;;;;;;5051902;28;20478;-66
2022/03/21 12:38:23;;;;;;;0.30;0.30;;;18.10;28.50;;;;;;5053110;28;20423;-67
2022/03/21 12:40:58;;;;;;;0.50;0.50;;;17.90;28.20;;;;;;5054043;28;20468;-67
2022/03/21 12:43:29;;;;;;;0.30;0.30;;;17.50;29.20;;;;;;5054634;28;20396;-67
2022/03/21 12:46:07;;;;;;;0.30;0.30;;;17.60;30.80;;;;;;5054337;28;20936;-67
2022/03/21 12:48:44;;;;;;;0.30;0.30;;;18.10;29.40;;;;;;5054288;28;20416;-66
2022/03/21 12:51:13;;;;;;;0.30;0.30;;;18.30;29.30;;;;;;5054058;28;20460;-66
2022/03/21 12:53:45;;;;;;;0.40;0.40;;;18.50;29.30;;;;;;5054785;28;20401;-67
2022/03/21 12:56:15;;;;;;;0.50;0.50;;;18.30;28.90;;;;;;5054321;28;20421;-67
2022/03/21 12:58:45;;;;;;;0.40;0.40;;;17.70;30.20;;;;;;5054310;28;20486;-67
2022/03/21 13:01:18;;;;;;;0.60;0.60;;;17.30;28.80;;;;;;5054063;28;20870;-67
2022/03/21 13:03:44;;;;;;;0.30;0.30;;;17.10;29.50;;;;;;5053972;28;20867;-67
2022/03/21 13:11:35;;;;;;;0.37;0.37;;;16.00;29.70;;;;;;5053810;28;20995;-67
2022/03/21 13:14:05;;;;;;;0.40;0.40;;;16.00;29.90;;;;;;5053839;28;20411;-67
2022/03/21 13:16:38;;;;;;;0.60;0.60;;;16.00;29.60;;;;;;5053708;28;20447;-67
2022/03/21 13:19:06;;;;;;;0.60;0.60;;;15.60;29.90;;;;;;5053914;28;20390;-66
2022/03/21 13:21:35;;;;;;;0.30;0.30;;;15.20;30.10;;;;;;5052288;28;20941;-66
2022/03/21 13:24:02;;;;;;;0.30;0.30;;;15.10;31.50;;;;;;5053893;28;20408;-67